createdAt,value
2023-02-19T00:01:44.412Z,20.23
2023-02-19T00:04:20.590Z,18.30
2023-02-19T00:06:48.489Z,20.42
2023-02-19T00:09:17.357Z,19.80
2023-02-19T00:11:45.132Z,18.70
2023-02-19T00:14:17.077Z,21.13
2023-02-19T00:16:44.098Z,20.80
2023-02-19T00:19:14.925Z,18.83
2023-02-19T00:21:41.916Z,29.00
2023-02-19T00:24:11.596Z,19.15
2023-02-19T00:26:40.030Z,19.40
2023-02-19T00:29:06.967Z,20.90
2023-02-19T00:31:35.736Z,17.88
2023-02-19T00:34:05.529Z,21.13
2023-02-19T00:36:36.608Z,20.63
2023-02-19T00:39:05.446Z,22.15
2023-02-19T00:41:33.114Z,19.83
2023-02-19T00:44:02.902Z,21.33
2023-02-19T00:46:39.217Z,19.60
2023-02-19T00:49:08.108Z,19.52
2023-02-19T00:51:38.341Z,18.15
2023-02-19T00:54:06.485Z,22.65
2023-02-19T00:56:34.260Z,18.02
2023-02-19T00:59:01.379Z,22.73
2023-02-19T01:01:28.332Z,25.60
2023-02-19T01:03:55.396Z,25.77
2023-02-19T01:06:22.896Z,22.88
2023-02-19T01:08:50.167Z,23.33
2023-02-19T01:11:18.703Z,23.83
2023-02-19T01:13:45.771Z,25.50
2023-02-19T01:16:19.236Z,24.67
2023-02-19T01:18:46.753Z,22.63
2023-02-19T01:21:17.325Z,25.30
2023-02-19T01:23:47.054Z,26.20
2023-02-19T01:26:17.374Z,25.73
2023-02-19T01:28:45.218Z,19.38
2023-02-19T01:31:21.014Z,18.63
2023-02-19T01:33:50.543Z,18.33
2023-02-19T01:36:18.207Z,20.10
2023-02-19T01:38:45.330Z,17.00
2023-02-19T01:41:19.090Z,16.45
2023-02-19T01:43:56.854Z,14.75
2023-02-19T01:46:35.310Z,16.42
2023-02-19T01:49:18.279Z,16.73
2023-02-19T01:51:52.134Z,17.10
2023-02-19T01:54:22.699Z,12.75
2023-02-19T01:56:52.209Z,13.68
2023-02-19T01:59:19.489Z,18.25
2023-02-19T02:01:46.634Z,15.32
2023-02-19T02:04:15.735Z,16.60
2023-02-19T02:06:55.060Z,16.73
2023-02-19T02:09:45.483Z,17.15
2023-02-19T02:12:15.284Z,17.05
2023-02-19T02:14:46.727Z,14.68
2023-02-19T02:17:34.911Z,19.08
2023-02-19T02:20:29.613Z,11.55
2023-02-19T02:23:23.746Z,15.25
2023-02-19T02:26:00.003Z,15.63
2023-02-19T02:28:51.687Z,20.35
2023-02-19T02:31:49.808Z,17.95
2023-02-19T02:34:22.776Z,20.63
2023-02-19T02:36:55.851Z,18.92
2023-02-19T02:39:26.780Z,19.17
2023-02-19T02:42:18.458Z,17.92
2023-02-19T02:45:14.420Z,12.55
2023-02-19T02:47:55.303Z,19.08
2023-02-19T02:50:30.405Z,20.73
2023-02-19T02:53:22.208Z,15.27
2023-02-19T02:55:52.189Z,18.27
2023-02-19T02:58:22.499Z,12.65
2023-02-19T03:01:16.683Z,19.42
2023-02-19T03:03:48.128Z,13.90
2023-02-19T03:06:18.729Z,14.98
2023-02-19T03:09:04.336Z,18.27
2023-02-19T03:11:53.367Z,15.70
2023-02-19T03:14:49.817Z,18.80
2023-02-19T03:17:41.361Z,21.42
2023-02-19T03:20:13.111Z,18.30
2023-02-19T03:22:42.504Z,15.75
2023-02-19T03:25:47.392Z,15.27
2023-02-19T03:28:42.911Z,12.07
2023-02-19T03:31:15.711Z,12.48
2023-02-19T03:33:45.709Z,15.00
2023-02-19T03:36:15.884Z,13.52
2023-02-19T03:38:47.646Z,13.52
2023-02-19T03:41:40.863Z,11.38
2023-02-19T03:44:48.063Z,16.90
2023-02-19T03:47:25.506Z,15.65
2023-02-19T03:49:55.575Z,15.60
2023-02-19T03:52:49.428Z,16.10
2023-02-19T03:55:18.521Z,14.80
2023-02-19T03:58:10.701Z,14.43
2023-02-19T04:00:50.625Z,13.95
2023-02-19T04:03:47.805Z,17.88
2023-02-19T04:06:22.231Z,13.30
2023-02-19T04:08:53.161Z,16.05
2023-02-19T04:11:22.634Z,14.18
2023-02-19T04:14:07.519Z,10.90
2023-02-19T04:16:39.877Z,9.30
2023-02-19T04:19:11.583Z,14.18
2023-02-19T04:21:41.499Z,18.50
2023-02-19T04:24:15.288Z,16.88
2023-02-19T04:26:44.232Z,18.98
2023-02-19T04:29:11.206Z,16.70
2023-02-19T04:31:38.885Z,12.32
2023-02-19T04:34:07.097Z,11.88
2023-02-19T04:36:34.341Z,14.23
2023-02-19T04:39:01.309Z,20.63
2023-02-19T04:41:28.224Z,18.13
2023-02-19T04:43:55.252Z,16.33
2023-02-19T04:46:22.176Z,14.05
2023-02-19T04:48:49.116Z,13.07
2023-02-19T04:51:16.231Z,18.00
2023-02-19T04:53:43.628Z,18.90
2023-02-19T04:56:16.354Z,21.77
2023-02-19T04:58:44.523Z,17.45
2023-02-19T05:01:12.340Z,17.58
2023-02-19T05:03:40.043Z,15.88
2023-02-19T05:06:10.987Z,16.38
2023-02-19T05:08:38.803Z,11.98
2023-02-19T05:11:08.038Z,14.38
2023-02-19T05:13:35.193Z,15.45
2023-02-19T05:16:04.870Z,20.52
2023-02-19T05:18:33.060Z,20.85
2023-02-19T05:21:00.326Z,25.42
2023-02-19T05:23:28.215Z,11.98
2023-02-19T05:25:55.125Z,18.83
2023-02-19T05:28:28.637Z,15.48
2023-02-19T05:30:57.032Z,14.82
2023-02-19T05:33:26.009Z,15.07
2023-02-19T05:35:55.068Z,21.38
2023-02-19T05:38:22.934Z,13.27
2023-02-19T05:40:50.612Z,10.43
2023-02-19T05:43:18.342Z,12.55
2023-02-19T05:45:45.350Z,15.23
2023-02-19T05:48:12.897Z,23.73
2023-02-19T05:50:40.099Z,19.52
2023-02-19T05:53:13.032Z,19.55
2023-02-19T05:55:39.961Z,15.20
2023-02-19T05:58:06.961Z,17.55
2023-02-19T06:00:34.368Z,21.33
2023-02-19T06:03:02.186Z,14.25
2023-02-19T06:05:29.152Z,17.23
2023-02-19T06:07:56.140Z,13.15
2023-02-19T06:10:23.010Z,12.45
2023-02-19T06:12:53.582Z,18.48
2023-02-19T06:15:21.721Z,12.85
2023-02-19T06:17:48.919Z,17.20
2023-02-19T06:20:16.352Z,12.93
2023-02-19T06:22:43.626Z,13.40
2023-02-19T06:25:12.677Z,18.70
2023-02-19T06:27:40.172Z,15.30
2023-02-19T06:30:07.883Z,15.68
2023-02-19T06:32:35.106Z,12.23
2023-02-19T06:35:04.278Z,25.35
2023-02-19T06:37:32.743Z,15.18
2023-02-19T06:39:59.767Z,15.27
2023-02-19T06:42:26.778Z,20.05
2023-02-19T06:44:53.784Z,14.68
2023-02-19T06:47:20.746Z,17.63
2023-02-19T06:49:49.078Z,13.88
2023-02-19T06:52:16.041Z,19.80
2023-02-19T06:54:43.066Z,17.33
2023-02-19T06:57:10.016Z,14.40
2023-02-19T06:59:37.080Z,18.50
2023-02-19T07:02:04.077Z,18.25
2023-02-19T07:04:32.196Z,12.88
2023-02-19T07:07:00.495Z,17.02
2023-02-19T07:09:28.606Z,19.70
2023-02-19T07:11:55.657Z,16.48
2023-02-19T07:14:22.875Z,14.75
2023-02-19T07:16:49.828Z,10.77
2023-02-19T07:19:17.080Z,14.93
2023-02-19T07:21:44.038Z,15.68
2023-02-19T07:24:11.056Z,14.43
2023-02-19T07:26:38.214Z,15.93
2023-02-19T07:29:05.152Z,22.45
2023-02-19T07:31:32.303Z,21.38
2023-02-19T07:33:59.256Z,20.58
2023-02-19T07:36:27.593Z,17.23
2023-02-19T07:39:00.362Z,19.65
2023-02-19T07:41:29.091Z,25.77
2023-02-19T07:43:59.778Z,12.20
2023-02-19T07:46:28.084Z,19.45
2023-02-19T07:48:55.725Z,19.08
2023-02-19T07:51:23.368Z,23.30
2023-02-19T07:53:50.971Z,13.45
2023-02-19T07:56:18.934Z,19.20
2023-02-19T07:58:46.449Z,12.65
2023-02-19T08:01:42.081Z,18.67
2023-02-19T08:04:12.873Z,15.90
2023-02-19T08:06:40.578Z,15.40
2023-02-19T08:09:08.233Z,10.50
2023-02-19T08:11:53.738Z,17.67
2023-02-19T08:14:24.202Z,13.98
2023-02-19T08:16:52.105Z,12.55
2023-02-19T08:19:19.579Z,14.63
2023-02-19T08:21:46.820Z,13.85
2023-02-19T08:24:13.787Z,18.83
2023-02-19T08:26:40.795Z,15.15
2023-02-19T08:29:07.762Z,11.50
2023-02-19T08:31:35.549Z,14.52
2023-02-19T08:34:02.730Z,13.50
2023-02-19T08:36:29.802Z,14.02
2023-02-19T08:38:56.796Z,12.63
2023-02-19T08:41:25.728Z,19.63
2023-02-19T08:43:54.565Z,16.42
2023-02-19T08:46:22.841Z,19.85
2023-02-19T08:48:49.940Z,14.57
2023-02-19T08:51:17.102Z,20.02
2023-02-19T08:53:44.119Z,15.32
2023-02-19T08:56:17.589Z,10.10
2023-02-19T08:58:46.051Z,22.05
2023-02-19T09:01:16.607Z,15.68
2023-02-19T09:03:43.888Z,12.82
2023-02-19T09:06:17.309Z,13.07
2023-02-19T09:08:44.441Z,11.57
2023-02-19T09:11:14.898Z,13.52
2023-02-19T09:13:42.206Z,13.68
2023-02-19T09:16:09.661Z,17.83
2023-02-19T09:18:36.934Z,21.55
2023-02-19T09:21:06.050Z,12.45
2023-02-19T09:23:34.642Z,21.70
2023-02-19T09:26:03.375Z,17.40
2023-02-19T09:28:30.814Z,14.93
2023-02-19T09:30:57.971Z,14.23
2023-02-19T09:33:25.283Z,18.08
2023-02-19T09:35:52.622Z,19.35
2023-02-19T09:38:20.749Z,18.58
2023-02-19T09:40:48.096Z,19.08
2023-02-19T09:43:23.346Z,20.05
2023-02-19T09:45:55.257Z,15.82
2023-02-19T09:48:22.469Z,15.32
2023-02-19T09:50:50.013Z,18.83
2023-02-19T09:53:27.335Z,11.07
2023-02-19T09:55:55.778Z,14.80
2023-02-19T09:58:27.083Z,11.20
2023-02-19T10:00:56.631Z,18.55
2023-02-19T10:03:31.967Z,11.65
2023-02-19T10:06:09.424Z,14.80
2023-02-19T10:08:40.067Z,22.63
2023-02-19T10:11:07.772Z,15.07
2023-02-19T10:13:57.946Z,19.75
2023-02-19T10:16:30.900Z,18.40
2023-02-19T10:18:58.336Z,16.38
2023-02-19T10:21:27.582Z,10.13
2023-02-19T10:23:57.478Z,14.68
2023-02-19T10:26:24.844Z,17.58
2023-02-19T10:28:52.191Z,15.07
2023-02-19T10:31:22.531Z,14.23
2023-02-19T10:33:58.255Z,15.70
2023-02-19T10:36:32.100Z,14.02
2023-02-19T10:39:02.117Z,16.55
2023-02-19T10:41:29.904Z,11.77
2023-02-19T10:44:29.187Z,16.08
2023-02-19T10:46:59.444Z,14.52
2023-02-19T10:49:37.586Z,13.23
2023-02-19T10:52:18.124Z,12.25
2023-02-19T10:54:47.283Z,12.80
2023-02-19T10:57:25.730Z,12.40
2023-02-19T10:59:58.485Z,11.45
2023-02-19T11:02:26.770Z,15.65
2023-02-19T11:05:18.253Z,16.45
2023-02-19T11:07:54.887Z,8.90
2023-02-19T11:10:38.662Z,14.05
2023-02-19T11:13:07.635Z,14.85
2023-02-19T11:15:37.097Z,13.73
2023-02-19T11:18:24.035Z,12.32
2023-02-19T11:21:02.508Z,23.88
2023-02-19T11:23:31.703Z,13.48
2023-02-19T11:26:02.704Z,14.48
2023-02-19T11:28:38.657Z,19.67
2023-02-19T11:31:26.411Z,16.17
2023-02-19T11:33:57.742Z,15.60
2023-02-19T11:36:33.702Z,15.38
2023-02-19T11:39:16.346Z,14.80
2023-02-19T11:42:01.369Z,15.70
2023-02-19T11:45:10.585Z,16.02
2023-02-19T11:47:37.492Z,14.85
2023-02-19T11:50:22.037Z,23.55
2023-02-19T11:52:57.988Z,13.90
2023-02-19T11:55:49.993Z,25.38
2023-02-19T11:58:54.038Z,16.67
2023-02-19T12:01:24.254Z,19.90
2023-02-19T12:04:36.863Z,18.92
2023-02-19T12:07:16.978Z,15.45
2023-02-19T12:09:53.848Z,20.02
2023-02-19T12:12:26.601Z,11.88
2023-02-19T12:15:15.440Z,19.90
2023-02-19T12:17:58.312Z,13.82
2023-02-19T12:21:11.224Z,15.17
2023-02-19T12:23:50.251Z,16.30
2023-02-19T12:26:43.390Z,12.77
2023-02-19T12:29:25.596Z,13.75
2023-02-19T12:32:13.372Z,10.48
2023-02-19T12:34:49.508Z,17.10
2023-02-19T12:37:16.353Z,18.92
2023-02-19T12:40:15.830Z,13.82
2023-02-19T12:43:10.158Z,12.77
2023-02-19T12:45:44.620Z,11.23
2023-02-19T12:48:23.571Z,12.50
2023-02-19T12:50:58.824Z,10.32
2023-02-19T12:53:31.571Z,12.20
2023-02-19T12:56:05.078Z,11.80
2023-02-19T12:58:44.661Z,13.73
2023-02-19T13:01:19.757Z,16.30
2023-02-19T13:04:31.184Z,11.40
2023-02-19T13:07:14.579Z,9.02
2023-02-19T13:09:51.295Z,12.32
2023-02-19T13:12:23.713Z,10.50
2023-02-19T13:14:55.714Z,8.00
2023-02-19T13:17:26.314Z,9.60
2023-02-19T13:20:00.273Z,6.45
2023-02-19T13:23:05.145Z,10.00
2023-02-19T13:26:16.887Z,9.00
2023-02-19T13:29:02.601Z,12.52
2023-02-19T13:31:52.356Z,13.45
2023-02-19T13:34:35.765Z,12.88
2023-02-19T13:37:03.579Z,16.67
2023-02-19T13:39:31.875Z,11.98
2023-02-19T13:41:59.559Z,11.23
2023-02-19T13:44:32.305Z,8.60
2023-02-19T13:46:59.843Z,19.80
2023-02-19T13:49:30.191Z,14.80
2023-02-19T13:51:57.827Z,12.07
2023-02-19T13:54:40.020Z,19.75
2023-02-19T13:57:22.590Z,15.05
2023-02-19T13:59:51.260Z,16.13
2023-02-19T14:02:21.408Z,13.10
2023-02-19T14:04:55.875Z,10.32
2023-02-19T14:07:31.888Z,13.02
2023-02-19T14:10:01.224Z,12.93
2023-02-19T14:12:34.673Z,7.65
2023-02-19T14:15:39.715Z,8.50
2023-02-19T14:18:45.606Z,8.27
2023-02-19T14:21:37.408Z,13.45
2023-02-19T14:24:10.324Z,9.65
2023-02-19T14:26:37.573Z,8.52
2023-02-19T14:29:08.868Z,8.73
2023-02-19T14:31:40.077Z,10.00
2023-02-19T14:34:15.051Z,7.37
2023-02-19T14:36:48.932Z,6.47
2023-02-19T14:39:24.723Z,5.53
2023-02-19T14:41:59.678Z,11.20
2023-02-19T14:44:32.794Z,10.38
2023-02-19T14:47:09.462Z,7.82
2023-02-19T14:50:02.295Z,8.40
2023-02-19T14:52:40.280Z,5.93
2023-02-19T14:55:21.156Z,10.70
2023-02-19T14:57:50.245Z,9.90
2023-02-19T15:00:23.515Z,7.85
2023-02-19T15:02:52.208Z,12.20
2023-02-19T15:05:24.681Z,6.53
2023-02-19T15:07:54.213Z,8.55
2023-02-19T15:10:21.869Z,6.32
2023-02-19T15:12:58.571Z,5.85
2023-02-19T15:15:29.827Z,5.70
2023-02-19T15:17:59.241Z,5.97
2023-02-19T15:20:30.631Z,7.97
2023-02-19T15:23:00.250Z,7.22
2023-02-19T15:25:37.349Z,8.88
2023-02-19T15:28:28.212Z,7.70
2023-02-19T15:30:58.423Z,8.75
2023-02-19T15:33:27.389Z,5.95
2023-02-19T15:35:58.210Z,9.32
2023-02-19T15:38:25.756Z,11.18
2023-02-19T15:40:53.599Z,5.95
2023-02-19T15:43:31.839Z,9.15
2023-02-19T15:46:15.297Z,7.75
2023-02-19T15:48:57.152Z,8.93
2023-02-19T15:51:35.802Z,9.07
2023-02-19T15:54:29.477Z,7.00
2023-02-19T15:57:00.738Z,5.85
2023-02-19T15:59:42.222Z,9.25
2023-02-19T16:02:13.625Z,16.10
2023-02-19T16:04:45.308Z,10.25
2023-02-19T16:07:39.132Z,7.50
2023-02-19T16:10:24.943Z,10.65
2023-02-19T16:13:03.040Z,9.95
2023-02-19T16:15:32.746Z,7.95
2023-02-19T16:18:00.474Z,9.77
2023-02-19T16:20:31.448Z,9.10
2023-02-19T16:23:24.496Z,7.65
2023-02-19T16:26:02.725Z,8.65
2023-02-19T16:28:36.457Z,8.55
2023-02-19T16:31:10.087Z,7.32
2023-02-19T16:33:38.844Z,6.43
2023-02-19T16:36:21.907Z,6.38
2023-02-19T16:39:07.333Z,8.15
2023-02-19T16:41:49.508Z,5.53
2023-02-19T16:44:25.848Z,7.03
2023-02-19T16:46:57.128Z,5.72
2023-02-19T16:49:24.632Z,7.10
2023-02-19T16:51:52.361Z,14.70
2023-02-19T16:54:19.318Z,6.35
2023-02-19T16:56:46.224Z,5.82
2023-02-19T16:59:13.207Z,3.95
2023-02-19T17:01:40.214Z,3.30
2023-02-19T17:04:10.061Z,4.68
2023-02-19T17:06:40.424Z,4.13
2023-02-19T17:09:08.828Z,5.10
2023-02-19T17:11:36.701Z,3.78
2023-02-19T17:14:04.009Z,5.40
2023-02-19T17:16:43.480Z,3.63
2023-02-19T17:19:15.577Z,4.38
2023-02-19T17:21:42.551Z,10.30
2023-02-19T17:24:09.678Z,4.60
2023-02-19T17:26:36.908Z,6.65
2023-02-19T17:29:06.380Z,9.95
2023-02-19T17:31:34.240Z,4.93
2023-02-19T17:34:01.417Z,4.63
2023-02-19T17:36:30.902Z,3.78
2023-02-19T17:38:59.620Z,4.13
2023-02-19T17:41:27.015Z,3.35
2023-02-19T17:43:54.129Z,3.08
2023-02-19T17:46:25.549Z,5.10
2023-02-19T17:48:54.944Z,3.00
2023-02-19T17:51:22.755Z,5.15
2023-02-19T17:53:50.001Z,4.00
2023-02-19T17:56:26.213Z,2.97
2023-02-19T17:58:54.573Z,3.17
2023-02-19T18:01:22.671Z,6.20
2023-02-19T18:03:51.250Z,4.75
2023-02-19T18:06:18.901Z,2.70
2023-02-19T18:08:55.109Z,4.47
2023-02-19T18:11:23.345Z,5.07
2023-02-19T18:13:51.678Z,4.63
2023-02-19T18:16:19.113Z,92.85
2023-02-19T18:18:47.076Z,29.33
2023-02-19T18:21:14.391Z,8.15
2023-02-19T18:23:41.740Z,8.00
2023-02-19T18:26:10.973Z,6.20
2023-02-19T18:28:39.790Z,4.38
2023-02-19T18:31:07.015Z,4.00
2023-02-19T18:33:35.656Z,4.97
2023-02-19T18:36:03.871Z,6.82
2023-02-19T18:38:31.167Z,5.40
2023-02-19T18:40:58.911Z,5.30
2023-02-19T18:43:26.531Z,6.15
2023-02-19T18:45:53.635Z,7.47
2023-02-19T18:48:20.587Z,5.15
2023-02-19T18:50:47.553Z,8.20
2023-02-19T18:53:14.500Z,7.10
2023-02-19T18:55:41.544Z,5.07
2023-02-19T18:58:08.926Z,4.85
2023-02-19T19:00:36.091Z,8.88
2023-02-19T19:03:03.011Z,6.88
2023-02-19T19:05:30.074Z,9.15
2023-02-19T19:08:01.977Z,8.30
2023-02-19T19:10:30.265Z,7.88
2023-02-19T19:12:58.519Z,7.25
2023-02-19T19:15:26.079Z,11.18
2023-02-19T19:17:53.285Z,10.95
2023-02-19T19:20:21.968Z,8.70
2023-02-19T19:22:53.116Z,7.25
2023-02-19T19:25:21.703Z,10.00
2023-02-19T19:27:51.912Z,12.73
2023-02-19T19:30:20.253Z,11.40
2023-02-19T19:32:52.460Z,6.90
2023-02-19T19:35:21.128Z,11.77
2023-02-19T19:37:48.708Z,12.90
2023-02-19T19:40:17.638Z,9.88
2023-02-19T19:42:44.875Z,11.07
2023-02-19T19:45:12.638Z,12.65
2023-02-19T19:47:40.326Z,11.57
2023-02-19T19:50:07.909Z,10.23
2023-02-19T19:52:34.940Z,8.73
2023-02-19T19:55:02.081Z,11.68
2023-02-19T19:57:29.104Z,7.97
2023-02-19T19:59:56.065Z,13.90
2023-02-19T20:02:24.008Z,16.90
2023-02-19T20:04:51.067Z,11.70
2023-02-19T20:07:18.112Z,14.18
2023-02-19T20:09:51.169Z,12.48
2023-02-19T20:12:18.203Z,14.95
2023-02-19T20:14:46.508Z,11.18
2023-02-19T20:17:13.929Z,11.85
2023-02-19T20:19:41.243Z,16.20
2023-02-19T20:22:08.258Z,20.35
2023-02-19T20:24:35.348Z,14.57
2023-02-19T20:27:02.747Z,17.73
2023-02-19T20:29:34.467Z,16.20
2023-02-19T20:32:03.692Z,18.98
2023-02-19T20:34:31.853Z,19.65
2023-02-19T20:36:59.576Z,23.42
2023-02-19T20:39:29.297Z,20.98
2023-02-19T20:41:57.919Z,16.98
2023-02-19T20:44:26.540Z,17.75
2023-02-19T20:46:54.065Z,18.48
2023-02-19T20:49:24.002Z,18.27
2023-02-19T20:52:02.340Z,20.55
2023-02-19T20:54:31.380Z,22.52
2023-02-19T20:57:02.990Z,16.75
2023-02-19T20:59:35.102Z,17.42
2023-02-19T21:04:35.281Z,19.17
2023-02-19T21:07:03.310Z,20.98
2023-02-19T21:09:30.260Z,21.90
2023-02-19T21:11:58.533Z,20.30
2023-02-19T21:14:26.876Z,18.80
2023-02-19T21:16:53.805Z,20.45
2023-02-19T21:19:22.060Z,18.35
2023-02-19T21:21:49.488Z,16.52
2023-02-19T21:24:16.729Z,15.40
2023-02-19T21:26:44.917Z,15.52
2023-02-19T21:29:18.654Z,16.48
2023-02-19T21:31:49.785Z,22.48
2023-02-19T21:34:19.481Z,15.30
2023-02-19T21:36:46.963Z,15.55
2023-02-19T21:39:16.746Z,16.83
2023-02-19T21:41:43.853Z,16.35
2023-02-19T21:44:10.836Z,17.80
2023-02-19T21:46:38.107Z,17.85
2023-02-19T21:49:06.494Z,15.88
2023-02-19T21:51:38.980Z,17.98
2023-02-19T21:54:07.812Z,19.67
2023-02-19T21:56:36.697Z,23.13
2023-02-19T21:59:04.082Z,23.15
2023-02-19T22:01:38.896Z,21.58
2023-02-19T22:04:07.354Z,20.00
2023-02-19T22:06:35.041Z,18.98
2023-02-19T22:09:03.054Z,23.95
2023-02-19T22:11:30.046Z,23.63
2023-02-19T22:13:57.100Z,22.67
2023-02-19T22:16:25.742Z,19.27
2023-02-19T22:18:54.996Z,25.35
2023-02-19T22:21:23.384Z,22.45
2023-02-19T22:23:52.494Z,23.05
2023-02-19T22:26:22.651Z,22.17
2023-02-19T22:28:50.304Z,21.77
2023-02-19T22:31:20.431Z,26.38
2023-02-19T22:33:47.440Z,30.45
2023-02-19T22:36:24.975Z,37.33
2023-02-19T22:38:52.319Z,32.65
2023-02-19T22:41:20.390Z,34.90
2023-02-19T22:43:48.001Z,33.70
2023-02-19T22:46:18.545Z,41.75
2023-02-19T22:48:46.274Z,39.60
2023-02-19T22:51:18.760Z,48.95
2023-02-19T22:53:51.841Z,46.35
2023-02-19T22:56:20.838Z,41.80
2023-02-19T22:58:48.683Z,46.95
2023-02-19T23:01:16.195Z,45.63
2023-02-19T23:03:53.664Z,47.38
2023-02-19T23:06:27.374Z,43.67
2023-02-19T23:08:56.699Z,47.78
2023-02-19T23:11:30.404Z,44.85
2023-02-19T23:13:57.994Z,42.08
2023-02-19T23:16:25.742Z,41.70
2023-02-19T23:18:52.795Z,47.47
2023-02-19T23:21:22.504Z,43.25
2023-02-19T23:23:49.757Z,46.05
2023-02-19T23:26:17.713Z,50.88
2023-02-19T23:28:45.229Z,41.38
2023-02-19T23:31:13.400Z,49.35
2023-02-19T23:33:43.931Z,47.47
2023-02-19T23:36:13.763Z,47.47
2023-02-19T23:38:43.191Z,46.53
2023-02-19T23:41:12.554Z,40.15
2023-02-19T23:43:39.863Z,48.50
2023-02-19T23:46:07.539Z,41.20
2023-02-19T23:48:34.829Z,45.10
2023-02-19T23:51:01.841Z,40.22
2023-02-19T23:53:28.900Z,41.60
2023-02-19T23:55:56.223Z,41.65
2023-02-19T23:58:23.194Z,43.15
